Latest Weather Observations for Meekatharra

IDW60801

Issued at 5:12 pm WST Sunday 19 April 2015 (issued every 30 minutes, with the page automatically refreshed every 10 minutes)

About weather observations | Map of weather stations | Latest weather observations for WA | Other Formats
Station Details ID: 007045 Name: MEEKATHARRA AIRPORT Lat: -26.61 Lon: 118.54 Height: 517.0 m
Data from the previous 72 hours. | See also: Recent months at Meekatharra
Date/Time
WST
Temp
°C
App
Temp
°C
Dew
Point
Rel
Hum
%
Delta-T
°C
Wind Press
QNH
hPa
Press
MSL
hPa
Rain
since 9 am
mm
Dir
 
Spd
km/h
Gust
km/h
Spd
kts
Gust
kts
19/05:00pm 24.9 19.6 6.9 31 9.6 E 24 39 13 21 1021.9 - 0.0
19/04:30pm 25.5 19.9 7.0 30 9.9 E 26 39 14 21 1021.7 - 0.0
19/04:00pm 25.5 20.5 6.5 29 10.1 ENE 22 35 12 19 1021.7 - 0.0
19/03:30pm 25.4 19.4 5.4 27 10.4 ENE 26 35 14 19 1021.9 - 0.0
19/03:00pm 25.7 20.4 5.1 26 10.7 ENE 22 35 12 19 1021.8 1019.2 0.0
19/02:30pm 26.0 20.9 4.1 24 11.2 ENE 20 28 11 15 1021.8 - 0.0
19/02:00pm 25.3 17.9 1.7 21 11.5 ENE 30 44 16 24 1022.0 - 0.0
19/01:30pm 25.1 18.8 4.0 25 10.7 ENE 26 39 14 21 1022.1 - 0.0
19/01:00pm 24.9 17.5 3.9 25 10.6 ENE 32 43 17 23 1022.6 - 0.0
19/12:31pm 25.0 18.2 5.0 27 10.3 E 30 48 16 26 1023.0 - 0.0
19/12:30pm 24.3 17.0 4.4 27 10.1 E 32 48 17 26 1023.0 - 0.0
19/12:00pm 24.0 16.5 4.5 28 9.9 E 33 46 18 25 1023.4 1020.8 0.0
19/11:30am 23.9 16.6 4.3 28 9.9 ENE 32 50 17 27 1023.7 - 0.0
19/11:05am 22.7 15.5 5.0 31 9.0 ENE 32 50 17 27 1024.0 - 0.0
19/11:00am 22.7 15.1 5.6 33 8.8 E 35 46 19 25 1024.1 - 0.0
19/10:30am 22.7 14.9 4.7 31 9.1 ENE 35 46 19 25 1024.7 - 0.0
19/10:00am 21.1 13.2 4.4 33 8.3 ENE 35 46 19 25 1024.8 - 0.0
19/09:30am 21.2 15.1 6.5 38 7.6 E 28 39 15 21 1024.6 - 0.0
19/09:27am 20.8 14.7 6.7 40 7.3 ENE 28 46 15 25 1024.6 - 0.0
19/09:00am 19.7 12.9 6.7 42 6.7 E 32 48 17 26 1024.5 1021.8 0.0
19/08:30am 18.6 11.5 6.6 45 6.1 E 33 46 18 25 1024.5 - 0.0
19/08:00am 17.3 10.4 6.4 48 5.5 E 32 43 17 23 1023.9 - 0.0
19/07:30am 16.4 11.0 6.2 51 5.1 E 24 35 13 19 1023.6 - 0.0
19/07:00am 15.2 10.7 6.1 54 4.5 ESE 19 28 10 15 1023.4 - 0.0
19/06:30am 15.1 9.9 5.7 53 4.6 E 22 28 12 15 1023.0 - 0.0
19/06:00am 15.4 10.2 5.3 51 4.9 E 22 30 12 16 1022.6 1019.9 0.0
19/05:30am 15.7 10.0 5.0 49 5.2 E 24 33 13 18 1022.4 - 0.0
19/05:00am 16.0 9.9 4.6 46 5.5 E 26 35 14 19 1022.1 - 0.0
19/04:30am 16.4 11.0 4.3 44 5.8 E 22 32 12 17 1022.3 - 0.0
19/04:00am 16.6 11.5 4.1 43 6.0 E 20 32 11 17 1022.0 - 0.0
19/03:30am 17.0 11.5 3.8 41 6.3 E 22 32 12 17 1021.6 - 0.0
19/03:00am 17.2 12.0 3.5 40 6.5 E 20 30 11 16 1022.0 1019.4 0.0
19/02:30am 17.3 11.7 3.4 39 6.6 E 22 30 12 16 1022.0 - 0.0
19/02:00am 17.5 11.8 2.8 37 6.9 E 22 32 12 17 1022.3 - 0.0
19/01:30am 17.0 11.9 2.9 39 6.6 E 19 24 10 13 1022.4 - 0.0
19/01:00am 16.8 11.9 2.3 37 6.7 E 17 20 9 11 1022.6 - 0.0
19/12:30am 17.0 11.5 1.7 35 7.0 E 20 26 11 14 1022.4 - 0.0
19/12:00am 17.4 12.0 1.4 34 7.3 E 19 26 10 14 1022.7 1020.0 0.0
 
Date/Time
WST
Temp
°C
App
Temp
°C
Dew
Point
Rel
Hum
%
Delta-T
°C
Wind Press
QNH
hPa
Press
MSL
hPa
Rain
since 9 am
mm
Dir
 
Spd
km/h
Gust
km/h
Spd
kts
Gust
kts
18/11:30pm 17.4 12.8 1.4 34 7.3 E 15 20 8 11 1023.1 - 0.0
18/11:00pm 17.6 12.6 1.4 33 7.4 E 17 22 9 12 1023.2 - 0.0
18/10:30pm 17.7 12.7 1.6 34 7.4 E 17 20 9 11 1023.2 - 0.0
18/10:00pm 18.0 13.1 2.1 34 7.4 E 17 22 9 12 1023.4 - 0.0
18/09:30pm 18.3 13.9 2.6 35 7.4 E 15 20 8 11 1023.3 - 0.0
18/09:00pm 18.4 14.7 4.2 39 6.9 ESE 13 15 7 8 1023.4 1020.8 0.0
18/08:30pm 19.0 14.9 4.3 38 7.2 E 15 20 8 11 1023.0 - 0.0
18/08:00pm 19.3 15.6 4.5 37 7.3 E 13 17 7 9 1022.9 - 0.0
18/07:30pm 20.1 16.4 4.6 36 7.7 E 13 17 7 9 1022.8 - 0.0
18/07:00pm 20.7 16.6 4.1 33 8.2 ENE 15 19 8 10 1022.6 - 0.0
18/06:30pm 21.2 17.0 3.7 31 8.6 E 15 22 8 12 1022.3 - 0.0
18/06:00pm 21.6 16.5 3.1 29 9.0 E 19 28 10 15 1021.7 1019.1 0.0
18/05:30pm 22.0 16.8 3.5 29 9.1 E 20 30 11 16 1021.3 - 0.0
18/05:00pm 22.5 17.3 3.8 29 9.3 E 20 28 11 15 1020.8 - 0.0
18/04:30pm 23.0 17.4 3.7 28 9.6 E 22 28 12 15 1020.6 - 0.0
18/04:00pm 23.3 18.5 4.5 29 9.5 E 19 24 10 13 1020.6 - 0.0
18/03:30pm 23.3 18.5 4.5 29 9.5 E 19 24 10 13 1020.4 - 0.0
18/03:00pm 22.9 18.3 5.6 32 8.9 ENE 19 28 10 15 1020.6 1017.9 0.0
18/02:30pm 23.2 19.2 6.7 34 8.7 E 17 28 9 15 1020.6 - 0.0
18/02:00pm 23.2 19.3 6.9 35 8.6 E 17 24 9 13 1020.7 - 0.0
18/01:30pm 23.5 19.1 6.6 33 8.9 E 19 26 10 14 1020.8 - 0.0
18/01:00pm 23.2 18.7 6.9 35 8.6 E 20 30 11 16 1021.0 - 0.0
18/12:30pm 22.7 18.7 6.7 35 8.4 E 17 24 9 13 1021.4 - 0.0
18/12:00pm 22.1 17.1 6.3 36 8.2 E 22 35 12 19 1021.7 1019.1 0.0
18/11:30am 21.3 16.9 6.4 38 7.7 E 19 26 10 14 1022.3 - 0.0
18/11:00am 21.1 16.7 6.6 39 7.5 E 19 26 10 14 1022.8 - 0.0
18/10:30am 20.5 16.2 7.1 42 7.0 E 19 26 10 14 1022.8 - 0.0
18/10:00am 19.8 15.3 7.1 43 6.6 E 20 28 11 15 1022.9 - 0.0
18/09:30am 18.4 13.4 7.9 50 5.5 ENE 24 35 13 19 1022.9 - 0.0
18/09:00am 18.0 13.1 8.5 53 5.0 ENE 24 32 13 17 1022.8 1020.2 0.0
18/08:30am 17.1 13.5 9.9 62 3.9 E 19 28 10 15 1022.6 - 0.0
18/08:00am 16.1 12.6 10.2 68 3.2 ENE 19 26 10 14 1022.3 - 0.0
18/07:30am 15.6 12.5 10.4 71 2.8 E 17 24 9 13 1021.7 - 0.0
18/07:00am 15.3 12.6 10.3 72 2.7 ENE 15 20 8 11 1021.6 - 0.0
18/06:30am 15.1 12.8 10.3 73 2.6 ENE 13 17 7 9 1021.3 - 0.0
18/06:00am 15.3 12.6 10.3 72 2.7 ENE 15 20 8 11 1021.0 1018.3 0.0
18/05:30am 15.5 12.3 10.1 70 2.9 E 17 22 9 12 1021.0 - 0.0
18/05:00am 15.7 12.5 10.1 69 3.0 E 17 20 9 11 1020.8 - 0.0
18/04:30am 15.6 13.2 10.2 70 2.9 E 13 19 7 10 1020.5 - 0.0
18/04:00am 15.7 12.9 9.9 68 3.1 E 15 20 8 11 1020.5 - 0.0
18/03:30am 15.9 12.6 9.7 66 3.3 E 17 22 9 12 1020.2 - 0.0
18/03:00am 16.1 13.2 9.7 66 3.4 E 15 19 8 10 1020.7 1018.0 0.0
18/02:30am 16.4 13.5 9.7 64 3.6 ESE 15 19 8 10 1020.6 - 0.0
18/02:00am 16.7 14.2 9.6 63 3.8 ESE 13 19 7 10 1020.6 - 0.0
18/01:30am 17.0 14.1 9.5 61 4.0 ESE 15 19 8 10 1020.6 - 0.0
18/01:00am 17.4 14.4 9.4 59 4.3 E 15 19 8 10 1020.6 - 0.0
18/12:30am 17.8 14.8 9.4 58 4.5 E 15 20 8 11 1020.6 - 0.0
18/12:00am 18.3 15.6 9.1 55 4.9 E 13 19 7 10 1020.5 1017.8 0.0
 
Date/Time
WST
Temp
°C
App
Temp
°C
Dew
Point
Rel
Hum
%
Delta-T
°C
Wind Press
QNH
hPa
Press
MSL
hPa
Rain
since 9 am
mm
Dir
 
Spd
km/h
Gust
km/h
Spd
kts
Gust
kts
17/11:30pm 18.7 15.3 9.0 53 5.2 E 17 24 9 13 1020.5 - 0.0
17/11:00pm 18.9 15.8 9.0 52 5.3 ESE 15 20 8 11 1020.6 - 0.0
17/10:30pm 19.4 16.3 9.0 51 5.6 ESE 15 20 8 11 1020.8 - 0.0
17/10:00pm 19.8 17.1 8.8 49 5.9 ESE 13 19 7 10 1020.9 - 0.0
17/09:30pm 20.1 16.6 8.7 48 6.1 E 17 22 9 12 1020.6 - 0.0
17/09:00pm 20.5 17.0 8.8 47 6.3 E 17 22 9 12 1020.6 1017.9 0.0
17/08:30pm 20.7 17.7 9.1 47 6.3 E 15 20 8 11 1020.4 - 0.0
17/08:00pm 21.2 18.2 9.1 46 6.6 E 15 20 8 11 1020.4 - 0.0
17/07:30pm 21.7 18.3 9.0 44 6.9 E 17 24 9 13 1019.9 - 0.0
17/07:00pm 22.2 18.8 9.3 43 7.1 ESE 17 26 9 14 1019.8 - 0.0
17/06:30pm 22.4 20.0 8.8 41 7.4 E 11 15 6 8 1019.5 - 0.0
17/06:00pm 22.9 20.0 8.3 39 7.9 E 13 17 7 9 1019.1 1016.4 0.0
17/05:30pm 23.4 20.3 9.0 40 7.9 E 15 20 8 11 1018.9 - 0.0
17/05:00pm 23.8 20.1 9.4 40 8.0 E 19 24 10 13 1018.8 - 0.0
17/04:30pm 23.7 20.4 9.5 40 7.9 ENE 17 28 9 15 1018.8 - 0.0
17/04:00pm 24.2 21.3 9.7 39 8.1 ENE 15 22 8 12 1018.8 - 0.0
17/03:30pm 24.8 22.5 8.9 36 8.8 E 11 19 6 10 1018.8 - 0.0
17/03:00pm 24.6 21.6 9.1 37 8.6 ESE 15 22 8 12 1018.9 1016.2 0.0
17/02:30pm 24.6 22.1 9.8 39 8.3 E 13 20 7 11 1019.1 - 0.0
17/02:00pm 24.6 21.4 9.8 39 8.3 ESE 17 26 9 14 1019.3 - 0.0
17/01:30pm 23.1 20.6 10.9 46 6.9 ESE 15 24 8 13 1019.5 - 0.0
17/01:00pm 23.0 20.1 11.0 46 6.8 ESE 17 24 9 13 1020.0 - 0.0
17/12:30pm 23.0 19.7 10.8 46 6.9 ESE 19 28 10 15 1020.6 - 0.0
17/12:00pm 22.6 19.4 11.2 48 6.5 ESE 19 28 10 15 1021.2 1018.6 0.0
17/11:30am 21.8 18.3 11.0 50 6.1 E 20 32 11 17 1021.8 - 0.0
17/11:00am 21.4 17.9 10.9 51 5.9 E 20 32 11 17 1022.5 - 0.0
17/10:30am 20.7 16.8 10.9 53 5.5 E 22 32 12 17 1023.0 - 0.0
17/10:00am 19.6 14.9 10.8 56 4.9 E 26 35 14 19 1023.3 - 0.0
17/09:30am 18.9 13.9 11.0 60 4.4 E 28 35 15 19 1023.5 - 0.0
17/09:00am 17.6 12.2 10.9 65 3.7 ENE 30 39 16 21 1023.7 1021.1 0.0
17/08:30am 17.3 12.0 11.1 67 3.4 E 30 39 16 21 1023.5 - 0.0
17/08:00am 16.2 12.1 11.5 73 2.6 E 24 33 13 18 1023.5 - 0.0
17/07:30am 15.5 11.5 11.7 78 2.1 E 24 33 13 18 1023.4 - 0.0
17/07:00am 14.7 11.7 12.0 84 1.5 E 19 30 10 16 1023.2 - 0.0
17/06:30am 14.0 10.1 12.0 88 1.1 E 24 32 13 17 1023.1 - 0.0
17/06:00am 14.0 10.8 12.0 88 1.1 E 20 24 11 13 1023.1 1020.5 0.0
17/05:30am 13.9 11.3 12.1 89 1.0 E 17 24 9 13 1022.9 - 0.0
17/05:00am 14.0 11.8 12.2 89 1.0 ESE 15 20 8 11 1022.9 - 0.0
17/04:30am 14.1 11.6 12.3 89 1.0 E 17 22 9 12 1022.8 - 0.0
17/04:00am 14.2 11.2 12.0 87 1.2 ESE 19 26 10 14 1022.6 - 0.0
17/03:30am 14.3 11.3 12.1 87 1.2 ESE 19 28 10 15 1022.6 - 0.0
17/03:00am 14.5 11.6 12.2 86 1.3 ESE 19 30 10 16 1022.9 1020.3 0.0
17/02:30am 14.6 11.7 12.3 86 1.3 SE 19 26 10 14 1023.0 - 0.0
17/02:00am 14.8 12.2 12.1 84 1.5 ESE 17 22 9 12 1023.0 - 0.0
17/01:30am 15.1 12.9 12.0 82 1.7 ESE 15 24 8 13 1023.0 - 0.0
17/01:00am 15.5 12.9 11.9 79 2.0 ESE 17 20 9 11 1023.3 - 0.0
17/12:30am 16.0 13.0 11.9 76 2.3 ESE 19 24 10 13 1023.6 - 0.0
17/12:00am 16.5 13.3 11.8 74 2.6 SE 20 28 11 15 1024.0 1021.4 0.0
 
Date/Time
WST
Temp
°C
App
Temp
°C
Dew
Point
Rel
Hum
%
Delta-T
°C
Wind Press
QNH
hPa
Press
MSL
hPa
Rain
since 9 am
mm
Dir
 
Spd
km/h
Gust
km/h
Spd
kts
Gust
kts
16/11:30pm 16.9 14.6 11.7 71 2.9 ESE 15 22 8 12 1024.4 - 0.0
16/11:00pm 17.3 14.7 11.9 70 3.0 ESE 17 28 9 15 1024.6 - 0.0
16/10:30pm 17.6 14.1 12.1 70 3.1 ESE 22 30 12 16 1025.0 - 0.0
16/10:00pm 18.1 14.4 11.5 65 3.7 ESE 22 32 12 17 1025.1 - 0.0
16/09:30pm 18.2 14.5 11.4 64 3.8 ESE 22 32 12 17 1025.3 - 0.0
16/09:00pm 18.7 14.7 10.5 59 4.5 E 22 32 12 17 1025.4 1022.8 0.0
16/08:30pm 18.6 14.7 10.8 60 4.3 ESE 22 32 12 17 1025.3 - 0.0
16/08:00pm 18.7 14.0 10.5 59 4.5 ESE 26 35 14 19 1025.1 - 0.0
16/07:30pm 18.9 13.9 10.8 59 4.5 ESE 28 39 15 21 1024.8 - 0.0
16/07:00pm 19.2 15.7 10.9 58 4.6 ESE 20 32 11 17 1024.5 - 0.0
16/06:30pm 19.4 15.0 10.3 55 5.0 ESE 24 33 13 18 1023.8 - 0.0
16/06:00pm 19.7 15.4 10.7 56 5.0 SE 24 43 13 23 1023.3 1020.7 0.0
16/05:30pm 20.0 15.5 10.2 53 5.4 ESE 24 35 13 19 1023.1 - 0.0

Other Formats:

Comma delimited format used in spreadsheet applications
http://www.bom.gov.au/fwo/IDW60801/IDW60801.94430.axf

JavaScript Object Notation format (JSON) in row-major order
http://www.bom.gov.au/fwo/IDW60801/IDW60801.94430.json